Airfield :
LOGIN :

Register | Disclaimer

   EN    FR    IT 

 










Legend :    VFR   Marginal VFR   IFR   Intensive IFR   Very Intensive IFR
Visi :
Ceiling :
>= 8 km
>= 3000ft
5 to 8 km
1000 to 3000 ft
1500m to 5 km
500 to 1000 ft
800 to 1500m
200 to 500 ft
< 800m
< 200 ft
Symbols :   Thunderstorms  Fog  Heavy snow  Heavy precipitations  Wind > 20 kt
SIGMETs :     Misc.  Thunderstorms  Icing  Turbulence  Mountain Waves  Volcanic Ashes






- Airport Elevation : 256 ft
- IATA code : KUN


EYKA - Kaunas

CURRENT METAR :
  • 211850Z 26012KT 7000 -DZ OVC004 06/04 Q1021 R08/290095

EXPIRED METARs :
  • 211820Z 26012KT 4900 -DZ BR OVC004 06/04 Q1021 R08/290095
  • 211750Z 26012KT 4400 -DZ BR OVC004 05/04 Q1021 R08/290095
  • 211720Z 26013KT 4300 -DZ BR OVC004 05/04 Q1021 R08/290095
  • 211650Z 26013KT 4100 -DZ BR OVC005 05/04 Q1021 R08/290095

TAF TAF EYKA
Valid from the 21 at 18:00 until the 22 at 18:00 UTC


211703Z 2118/2218 26014KT 5000 BR OVC005
TEMPO 2118/2124 0800 DZ FG OVC002
BECMG 2200/2201 RA BKN010 OVC015
TEMPO 2201/2206 3000 BKN005
BECMG 2209/2210 33016KT 8000 BKN025
TEMPO 2210/2215 5000 SHRASN SCT005 BKN015CB



MET'MAP, your aeronautical weather chart ! - Copyright ORBIFLY December 2007 - Disclaimer

ORBIFLY MET'MAP TEAM :

Programming & Development : Alexandra Zaïnal
Concept & original design : Baudouin d'Aumeries
Assistance for programming : Marc-Olivier Méhu
Technical & hardware support : Manuel Goepfert

Contact : metmap@orbifly.com




SOURCES & CREDITS :

   NOAA